Time;durP1;ratioP1;P1;durP2;ratioP2;P2;SDS_P1;SDS_P2;PMS_P1;PMS_P2;Temp;Humidity;BMP_temperature;BMP_pressure;BME280_temperature;BME280_humidity;BME280_pressure;Samples;Min_cycle;Max_cycle;Signal;HPM_P1;HPM_P2
2022/07/16 00:03:17;;;;;;;3.15;3.00;;;27.90;71.50;;;;;;5114597;28;20081;-73
2022/07/16 00:05:43;;;;;;;3.50;3.28;;;27.80;71.30;;;;;;5096322;28;20047;-73
2022/07/16 00:08:09;;;;;;;3.70;3.40;;;27.80;71.90;;;;;;5114532;28;20030;-73
2022/07/16 00:10:35;;;;;;;4.50;3.20;;;27.70;71.70;;;;;;5096206;28;20446;-73
2022/07/16 00:13:02;;;;;;;3.92;3.20;;;27.70;71.60;;;;;;5114327;28;20080;-73
2022/07/16 00:15:29;;;;;;;3.75;3.55;;;27.70;71.70;;;;;;5114479;28;20019;-73
2022/07/16 00:20:41;;;;;;;2.90;2.80;;;27.70;71.30;;;;;;5072490;28;20052;-73
2022/07/16 00:23:07;;;;;;;3.30;3.10;;;27.70;71.70;;;;;;5095979;28;20487;-73
2022/07/16 00:25:34;;;;;;;3.83;3.08;;;27.70;72.00;;;;;;5114189;28;20035;-73
2022/07/16 00:28:00;;;;;;;3.40;3.20;;;27.60;71.70;;;;;;5114135;28;20403;-74
2022/07/16 00:30:26;;;;;;;3.15;2.95;;;27.50;71.80;;;;;;5114134;28;20027;-73
2022/07/16 00:32:52;;;;;;;3.60;3.35;;;27.50;71.80;;;;;;5114058;28;20031;-73
2022/07/16 00:35:18;;;;;;;4.60;3.35;;;27.40;71.80;;;;;;5095795;28;20020;-73
2022/07/16 00:37:43;;;;;;;3.78;3.53;;;27.50;71.90;;;;;;5113983;28;20031;-73
2022/07/16 00:40:09;;;;;;;3.42;3.22;;;27.40;72.10;;;;;;5113982;28;20027;-73
2022/07/16 00:42:35;;;;;;;3.55;3.35;;;27.30;72.30;;;;;;5095714;28;20070;-73
2022/07/16 00:45:01;;;;;;;3.05;2.85;;;27.30;72.80;;;;;;5095668;28;20036;-73
2022/07/16 00:47:27;;;;;;;3.60;3.35;;;27.20;72.90;;;;;;5113873;28;20023;-72
2022/07/16 00:49:52;;;;;;;3.78;3.58;;;27.10;72.40;;;;;;5095317;28;20027;-73
2022/07/16 00:52:18;;;;;;;3.53;3.33;;;27.10;72.40;;;;;;5095430;28;20023;-73
2022/07/16 00:54:44;;;;;;;3.58;2.78;;;27.10;73.00;;;;;;5113791;28;20023;-73
2022/07/16 00:57:10;;;;;;;5.50;3.50;;;27.10;73.10;;;;;;5095475;28;20023;-73
2022/07/16 00:59:35;;;;;;;3.40;3.20;;;27.10;72.70;;;;;;5113669;28;20054;-73
2022/07/16 01:02:01;;;;;;;3.50;3.30;;;27.20;72.70;;;;;;5113562;28;20024;-73
2022/07/16 01:04:27;;;;;;;3.40;3.20;;;27.10;72.50;;;;;;5113648;28;20027;-73
2022/07/16 01:06:53;;;;;;;3.50;3.30;;;27.00;73.00;;;;;;5113546;28;20024;-73
2022/07/16 01:09:21;;;;;;;3.92;3.63;;;27.00;73.30;;;;;;5113542;28;20026;-73
2022/07/16 01:11:47;;;;;;;4.78;3.85;;;26.90;73.50;;;;;;5095072;28;20020;-73
2022/07/16 01:14:15;;;;;;;3.53;3.33;;;26.90;73.60;;;;;;5095317;28;20030;-73
2022/07/16 01:16:41;;;;;;;7.22;3.05;;;27.00;73.10;;;;;;5095392;28;20015;-73
2022/07/16 01:19:09;;;;;;;4.07;3.53;;;27.00;73.10;;;;;;5113403;28;20539;-73
2022/07/16 01:21:35;;;;;;;3.70;3.40;;;26.90;73.60;;;;;;5113337;28;20030;-73
2022/07/16 01:24:01;;;;;;;3.78;3.40;;;26.80;73.60;;;;;;5113429;28;20441;-73
2022/07/16 01:26:26;;;;;;;3.65;3.35;;;26.90;74.00;;;;;;5113386;28;20114;-73
2022/07/16 01:28:52;;;;;;;4.00;3.70;;;26.80;73.80;;;;;;5113393;28;20019;-73
2022/07/16 01:31:18;;;;;;;4.40;3.97;;;26.80;73.90;;;;;;5113252;28;20034;-73
2022/07/16 01:33:44;;;;;;;4.72;3.38;;;26.80;74.20;;;;;;5113169;28;20111;-73
2022/07/16 01:36:12;;;;;;;3.78;3.58;;;26.80;74.30;;;;;;5113397;28;20044;-73
2022/07/16 01:38:44;;;;;;;4.28;3.88;;;26.90;74.40;;;;;;5095088;28;20110;-73
2022/07/16 01:41:12;;;;;;;4.40;3.65;;;26.90;75.50;;;;;;5113229;28;20071;-73
2022/07/16 01:43:38;;;;;;;4.95;3.55;;;26.90;74.50;;;;;;5116298;28;20028;-73
2022/07/16 01:46:05;;;;;;;3.60;3.35;;;26.80;74.50;;;;;;5117313;28;20008;-73
2022/07/16 01:48:31;;;;;;;4.00;3.70;;;26.80;74.80;;;;;;5098990;28;20055;-73
2022/07/16 01:50:57;;;;;;;4.15;3.85;;;26.80;74.90;;;;;;5117130;28;20102;-73
2022/07/16 01:53:24;;;;;;;3.97;3.78;;;26.90;75.10;;;;;;5117069;28;20184;-73
2022/07/16 01:55:50;;;;;;;5.30;3.35;;;26.80;75.20;;;;;;5117217;28;20045;-73
2022/07/16 01:58:16;;;;;;;3.72;3.47;;;26.80;75.20;;;;;;5117038;28;20023;-73
2022/07/16 02:00:44;;;;;;;3.65;3.40;;;26.80;75.40;;;;;;5117048;28;20577;-73
2022/07/16 02:03:11;;;;;;;3.20;3.10;;;26.80;75.70;;;;;;5116829;28;20055;-73
2022/07/16 02:05:37;;;;;;;4.30;3.90;;;26.80;75.90;;;;;;5098634;28;20077;-73
2022/07/16 02:08:04;;;;;;;3.80;3.50;;;26.80;76.40;;;;;;5116910;28;20023;-73
2022/07/16 02:10:30;;;;;;;3.80;3.42;;;26.70;77.00;;;;;;5116906;28;20023;-73
2022/07/16 02:12:57;;;;;;;3.92;3.72;;;26.60;77.70;;;;;;5116596;28;20066;-73
2022/07/16 02:15:22;;;;;;;4.18;3.88;;;26.60;78.20;;;;;;5116772;28;20023;-73
2022/07/16 02:17:48;;;;;;;3.92;3.63;;;26.50;78.80;;;;;;5116777;28;20080;-73
2022/07/16 02:20:14;;;;;;;4.30;4.00;;;26.50;79.20;;;;;;5098387;28;20051;-75
2022/07/16 02:22:40;;;;;;;4.30;4.03;;;26.50;79.80;;;;;;5116579;28;20020;-76
2022/07/16 02:25:07;;;;;;;4.97;3.92;;;26.50;80.30;;;;;;5116544;28;20020;-75
2022/07/16 02:27:34;;;;;;;4.30;3.90;;;26.40;80.70;;;;;;5116577;28;20111;-76
2022/07/16 02:29:59;;;;;;;7.20;4.05;;;26.50;80.60;;;;;;5116461;28;20551;-76
2022/07/16 02:32:27;;;;;;;3.47;3.28;;;26.50;81.00;;;;;;5116364;28;20027;-75
2022/07/16 02:34:53;;;;;;;4.45;4.07;;;26.50;81.10;;;;;;5116351;28;20012;-76
2022/07/16 02:37:19;;;;;;;4.95;4.10;;;26.40;81.60;;;;;;5116398;28;20058;-76
2022/07/16 02:39:44;;;;;;;6.30;4.50;;;26.40;82.40;;;;;;5116391;28;20043;-75
2022/07/16 02:42:10;;;;;;;4.05;3.85;;;26.40;82.70;;;;;;5116271;28;20039;-75
2022/07/16 02:44:36;;;;;;;4.10;3.90;;;26.40;83.40;;;;;;5116133;28;20032;-75
2022/07/16 02:47:02;;;;;;;4.32;4.03;;;26.30;84.00;;;;;;5116130;28;20474;-76
2022/07/16 02:49:27;;;;;;;8.88;4.50;;;26.30;84.50;;;;;;5116111;28;20023;-76
2022/07/16 02:51:53;;;;;;;4.30;4.00;;;26.30;85.00;;;;;;5116090;28;20081;-75
2022/07/16 02:54:19;;;;;;;4.50;4.13;;;26.30;85.70;;;;;;5114896;28;20019;-76
2022/07/16 02:56:46;;;;;;;4.07;3.88;;;26.30;85.80;;;;;;5115914;28;20016;-75
2022/07/16 02:59:11;;;;;;;4.40;4.10;;;26.20;85.80;;;;;;5115815;28;20019;-76
2022/07/16 03:01:37;;;;;;;4.13;3.80;;;26.20;86.20;;;;;;5115825;28;20016;-76
2022/07/16 03:04:03;;;;;;;8.45;4.38;;;26.10;87.30;;;;;;5115726;28;20056;-75
2022/07/16 03:06:29;;;;;;;4.53;4.13;;;26.10;88.00;;;;;;5115761;28;20051;-76
2022/07/16 03:08:54;;;;;;;5.35;4.40;;;26.00;88.60;;;;;;5115646;28;20114;-75
2022/07/16 03:11:20;;;;;;;4.10;3.80;;;26.10;88.80;;;;;;5115591;28;20015;-76
2022/07/16 03:13:46;;;;;;;4.07;3.80;;;26.00;89.10;;;;;;5115583;28;20035;-76
2022/07/16 03:16:12;;;;;;;4.60;4.25;;;26.00;89.40;;;;;;5115601;28;20016;-76
2022/07/16 03:18:37;;;;;;;4.60;4.30;;;26.00;89.70;;;;;;5115583;28;20020;-75
2022/07/16 03:21:03;;;;;;;4.72;4.32;;;26.00;90.00;;;;;;5115562;28;20027;-76
2022/07/16 03:23:29;;;;;;;4.45;4.15;;;25.90;90.20;;;;;;5115545;28;20020;-75
2022/07/16 03:25:55;;;;;;;4.15;3.85;;;25.80;90.50;;;;;;5115384;28;20099;-75
2022/07/16 03:28:21;;;;;;;4.75;4.50;;;25.70;90.80;;;;;;5115306;28;20072;-75
2022/07/16 03:30:46;;;;;;;7.13;4.30;;;25.80;91.00;;;;;;5115268;28;20024;-75
2022/07/16 03:33:12;;;;;;;4.50;3.58;;;25.70;91.00;;;;;;5115193;28;20052;-75
2022/07/16 03:35:38;;;;;;;5.10;4.60;;;25.80;91.20;;;;;;5115311;28;20020;-75
2022/07/16 03:40:48;;;;;;;4.15;3.95;;;25.80;91.30;;;;;;5115111;28;20076;-75
2022/07/16 03:43:14;;;;;;;5.07;4.78;;;25.80;91.40;;;;;;5115117;28;20107;-75
2022/07/16 03:45:39;;;;;;;4.45;4.18;;;25.80;91.60;;;;;;5115063;28;20020;-75
2022/07/16 03:48:05;;;;;;;4.65;4.35;;;25.90;92.00;;;;;;5114968;28;20502;-75
2022/07/16 03:50:31;;;;;;;4.65;4.25;;;25.80;92.20;;;;;;5115008;28;20028;-76
2022/07/16 03:52:57;;;;;;;4.75;4.30;;;25.80;92.40;;;;;;5114779;28;20066;-75
2022/07/16 03:55:22;;;;;;;4.78;4.47;;;25.80;92.50;;;;;;5114827;28;20023;-75
2022/07/16 03:57:48;;;;;;;4.03;3.78;;;25.80;92.60;;;;;;5114815;28;20028;-75
2022/07/16 04:00:14;;;;;;;4.38;4.00;;;25.70;92.40;;;;;;5114802;28;20051;-75
2022/07/16 04:02:40;;;;;;;4.53;4.22;;;25.80;92.30;;;;;;5114549;28;20084;-75
2022/07/16 04:05:06;;;;;;;4.75;4.45;;;25.80;92.30;;;;;;5114380;28;20032;-75
2022/07/16 04:07:32;;;;;;;3.85;3.65;;;25.70;92.40;;;;;;5114618;28;20479;-75
2022/07/16 04:09:58;;;;;;;5.60;4.15;;;25.70;92.60;;;;;;5114390;28;20028;-75
2022/07/16 04:12:24;;;;;;;5.20;4.53;;;25.70;92.70;;;;;;5114402;28;20028;-74
2022/07/16 04:14:51;;;;;;;5.95;4.97;;;25.70;93.00;;;;;;5114481;28;20416;-75
2022/07/16 04:17:20;;;;;;;4.20;3.90;;;25.70;93.30;;;;;;5114414;28;20043;-75
2022/07/16 04:19:46;;;;;;;4.70;4.20;;;25.70;93.40;;;;;;5095878;28;20034;-75
2022/07/16 04:22:12;;;;;;;4.22;4.03;;;25.60;93.60;;;;;;5114260;28;20020;-75
2022/07/16 04:24:40;;;;;;;4.00;3.70;;;25.60;93.80;;;;;;5114245;28;20453;-75
2022/07/16 04:27:06;;;;;;;4.05;3.78;;;25.60;93.90;;;;;;5114301;28;20034;-75
2022/07/16 04:29:32;;;;;;;4.53;4.20;;;25.60;93.80;;;;;;5114277;28;20028;-74
2022/07/16 04:31:58;;;;;;;5.07;3.95;;;25.60;94.00;;;;;;5113944;28;20363;-74
2022/07/16 04:34:24;;;;;;;4.72;4.18;;;25.60;93.90;;;;;;5095879;28;20035;-75
2022/07/16 04:36:49;;;;;;;4.30;4.00;;;25.60;94.00;;;;;;5114019;28;20023;-75
2022/07/16 04:39:15;;;;;;;5.22;4.15;;;25.70;93.90;;;;;;5114050;28;20029;-75
2022/07/16 04:41:44;;;;;;;4.82;4.53;;;25.60;94.00;;;;;;5113955;28;20421;-75
2022/07/16 04:44:10;;;;;;;4.22;3.97;;;25.60;94.10;;;;;;5113959;28;20031;-75
2022/07/16 04:46:36;;;;;;;5.03;4.50;;;25.60;94.20;;;;;;5113890;28;20069;-75
2022/07/16 04:49:01;;;;;;;4.50;4.25;;;25.60;94.20;;;;;;5113877;28;20024;-75
2022/07/16 04:51:27;;;;;;;4.60;4.30;;;25.70;94.50;;;;;;5113751;28;20023;-75
2022/07/16 04:53:53;;;;;;;8.10;4.40;;;25.70;95.00;;;;;;5113822;28;20467;-75
2022/07/16 04:56:22;;;;;;;4.43;4.13;;;25.70;94.60;;;;;;5113707;28;20020;-75
2022/07/16 04:58:47;;;;;;;4.15;3.90;;;25.70;94.60;;;;;;5113754;28;20085;-74
2022/07/16 05:01:13;;;;;;;9.82;4.32;;;25.70;94.80;;;;;;5113777;28;20519;-75
2022/07/16 05:03:39;;;;;;;4.78;4.38;;;25.70;95.60;;;;;;5113381;28;20447;-75
2022/07/16 05:06:05;;;;;;;5.25;4.72;;;25.80;95.40;;;;;;5113576;28;20110;-75
2022/07/16 05:08:30;;;;;;;4.65;4.20;;;25.90;95.10;;;;;;5113670;28;20016;-75
2022/07/16 05:10:56;;;;;;;9.02;4.47;;;25.90;94.90;;;;;;5113560;28;20478;-75
2022/07/16 05:13:25;;;;;;;6.28;4.60;;;25.90;94.90;;;;;;5113415;28;20502;-75
2022/07/16 05:15:51;;;;;;;7.75;4.65;;;25.80;94.80;;;;;;5113498;28;20502;-75
2022/07/16 05:18:16;;;;;;;4.25;3.95;;;25.90;95.20;;;;;;5094600;28;20020;-75
2022/07/16 05:20:42;;;;;;;5.28;4.43;;;26.00;95.50;;;;;;5113446;28;20019;-75
2022/07/16 05:23:08;;;;;;;4.88;4.03;;;26.10;95.30;;;;;;5113456;28;20020;-75
2022/07/16 05:25:34;;;;;;;4.72;4.43;;;26.10;95.20;;;;;;5113515;28;20059;-75
2022/07/16 05:28:02;;;;;;;5.03;4.60;;;26.20;95.10;;;;;;5113556;28;20024;-75
2022/07/16 05:30:28;;;;;;;5.80;5.30;;;26.20;95.20;;;;;;5113434;28;20046;-75
2022/07/16 05:32:54;;;;;;;8.02;5.50;;;26.30;95.20;;;;;;5113242;28;20502;-75
2022/07/16 05:35:20;;;;;;;5.25;4.85;;;26.30;95.20;;;;;;5113199;28;20012;-75
2022/07/16 05:37:46;;;;;;;6.85;6.25;;;26.40;95.20;;;;;;5113311;28;20078;-75
2022/07/16 05:40:13;;;;;;;4.95;4.65;;;26.40;95.10;;;;;;5113282;28;20012;-75
2022/07/16 05:42:39;;;;;;;5.07;3.53;;;26.50;95.10;;;;;;5113197;28;20043;-75
2022/07/16 05:45:05;;;;;;;4.82;4.43;;;26.50;95.00;;;;;;5113313;28;20398;-75
2022/07/16 05:47:34;;;;;;;4.32;3.65;;;26.50;94.90;;;;;;5113174;28;20475;-75
2022/07/16 05:50:04;;;;;;;4.68;4.20;;;26.50;94.20;;;;;;5113190;28;20027;-74
2022/07/16 05:52:31;;;;;;;3.88;3.50;;;26.60;94.00;;;;;;5113024;28;20062;-75
2022/07/16 05:54:57;;;;;;;4.32;3.90;;;26.60;94.10;;;;;;5113143;28;20019;-75
2022/07/16 05:57:23;;;;;;;4.65;4.25;;;26.70;94.70;;;;;;5113182;28;20148;-75
2022/07/16 05:59:48;;;;;;;7.78;4.20;;;26.60;95.40;;;;;;5113140;28;20364;-75
2022/07/16 06:02:14;;;;;;;5.13;4.63;;;26.70;95.20;;;;;;5112771;28;20595;-75
2022/07/16 06:04:40;;;;;;;9.20;4.35;;;26.70;95.10;;;;;;5113018;28;20110;-75
2022/07/16 06:07:06;;;;;;;4.45;4.03;;;26.80;94.60;;;;;;5113050;28;20383;-75
2022/07/16 06:09:32;;;;;;;8.43;4.10;;;26.80;94.90;;;;;;5113024;28;20039;-76
2022/07/16 06:11:57;;;;;;;5.30;3.90;;;26.80;94.70;;;;;;5112900;28;20475;-75
2022/07/16 06:14:23;;;;;;;8.02;3.80;;;26.80;94.60;;;;;;5112971;28;20024;-75
2022/07/16 06:16:49;;;;;;;5.10;4.07;;;26.90;94.20;;;;;;5112869;28;20023;-75
2022/07/16 06:19:15;;;;;;;4.63;4.22;;;27.00;94.50;;;;;;5112847;28;20099;-75
2022/07/16 06:21:41;;;;;;;7.63;4.03;;;27.00;94.90;;;;;;5112963;28;20047;-75
2022/07/16 06:24:07;;;;;;;5.53;4.00;;;27.00;94.70;;;;;;5112924;28;20423;-75
2022/07/16 06:26:33;;;;;;;4.47;4.13;;;27.00;94.60;;;;;;5112950;28;20059;-76
2022/07/16 06:28:59;;;;;;;4.32;4.00;;;27.00;94.40;;;;;;5114657;28;20478;-75
2022/07/16 06:31:24;;;;;;;5.80;4.43;;;27.10;94.20;;;;;;5116358;28;20057;-75
2022/07/16 06:33:50;;;;;;;4.32;3.97;;;27.10;94.40;;;;;;5116434;28;20051;-75
2022/07/16 06:36:16;;;;;;;4.82;4.40;;;27.10;94.50;;;;;;5116379;28;20105;-75
2022/07/16 06:38:42;;;;;;;4.57;4.22;;;27.20;95.00;;;;;;5116336;28;20020;-75
2022/07/16 06:41:08;;;;;;;7.40;4.03;;;27.20;94.60;;;;;;5116385;28;20049;-75
2022/07/16 06:43:34;;;;;;;4.57;4.13;;;27.20;95.00;;;;;;5116296;28;20024;-75
2022/07/16 06:45:59;;;;;;;4.55;4.05;;;27.30;94.80;;;;;;5116127;28;20032;-75
2022/07/16 06:48:25;;;;;;;5.38;3.80;;;27.30;94.70;;;;;;5116080;28;20036;-75
2022/07/16 06:50:51;;;;;;;11.63;4.55;;;27.50;94.90;;;;;;5097806;28;21064;-75
2022/07/16 06:53:17;;;;;;;4.80;4.40;;;27.50;94.90;;;;;;5116056;28;20023;-75
2022/07/16 06:55:42;;;;;;;5.63;4.45;;;27.60;94.30;;;;;;5116119;28;20026;-75
2022/07/16 06:58:09;;;;;;;8.63;4.88;;;27.50;94.30;;;;;;5116084;28;20032;-75
2022/07/16 07:00:34;;;;;;;6.53;4.28;;;27.60;94.50;;;;;;5115864;28;20494;-75
2022/07/16 07:03:00;;;;;;;5.03;4.63;;;27.60;94.50;;;;;;5115720;28;20047;-75
2022/07/16 07:05:26;;;;;;;4.80;4.40;;;27.70;95.00;;;;;;5115824;28;20384;-75
2022/07/16 07:07:52;;;;;;;10.63;4.90;;;27.70;94.60;;;;;;5115871;28;20023;-75
2022/07/16 07:10:19;;;;;;;6.50;4.60;;;27.80;94.50;;;;;;5115663;28;20397;-75
2022/07/16 07:12:45;;;;;;;4.70;4.40;;;27.70;94.60;;;;;;5115712;28;20019;-76
2022/07/16 07:15:11;;;;;;;4.68;4.47;;;27.80;94.40;;;;;;5115619;28;20106;-75
2022/07/16 07:17:37;;;;;;;4.10;3.80;;;27.80;94.90;;;;;;5115650;28;20051;-75
2022/07/16 07:20:05;;;;;;;4.70;4.40;;;27.90;94.60;;;;;;5115415;28;20073;-75
2022/07/16 07:22:32;;;;;;;4.97;4.18;;;27.90;94.50;;;;;;5115603;28;20047;-75
2022/07/16 07:24:58;;;;;;;4.47;4.18;;;28.00;95.60;;;;;;5115492;28;20034;-75
2022/07/16 07:27:24;;;;;;;7.93;4.03;;;28.10;94.30;;;;;;5115484;28;20395;-75
2022/07/16 07:29:49;;;;;;;5.00;4.60;;;28.10;93.80;;;;;;5115250;28;20432;-75
2022/07/16 07:32:15;;;;;;;5.50;4.82;;;28.20;93.40;;;;;;5115149;28;20094;-75
2022/07/16 07:34:41;;;;;;;5.43;4.78;;;28.20;94.30;;;;;;5115254;28;20030;-75
2022/07/16 07:37:08;;;;;;;8.25;4.30;;;28.30;93.50;;;;;;5115212;28;20475;-75
2022/07/16 07:39:34;;;;;;;4.80;4.50;;;28.30;93.20;;;;;;5114980;28;20446;-75
2022/07/16 07:42:00;;;;;;;4.63;4.32;;;28.30;92.20;;;;;;5114694;28;20107;-76
2022/07/16 07:44:25;;;;;;;5.32;4.93;;;28.30;92.60;;;;;;5114998;28;20074;-76
2022/07/16 07:46:51;;;;;;;5.20;4.75;;;28.30;92.70;;;;;;5115050;28;20024;-75
2022/07/16 07:49:17;;;;;;;4.50;4.20;;;28.40;92.80;;;;;;5115030;28;20028;-75
2022/07/16 07:51:43;;;;;;;5.10;4.13;;;28.40;93.10;;;;;;5114804;28;20024;-75
2022/07/16 07:54:09;;;;;;;4.70;4.30;;;28.50;92.80;;;;;;5096677;28;20107;-75
2022/07/16 07:57:03;;;;;;;5.03;4.20;;;28.50;92.10;;;;;;5114727;28;20019;-75
2022/07/16 07:59:34;;;;;;;4.65;4.22;;;28.60;92.70;;;;;;5096099;28;20372;-76
2022/07/16 08:02:00;;;;;;;4.87;4.50;;;28.60;92.00;;;;;;5095510;28;20420;-75
2022/07/16 08:04:27;;;;;;;4.88;4.57;;;28.60;92.00;;;;;;5114712;28;20277;-75
2022/07/16 08:06:53;;;;;;;4.72;4.32;;;28.70;92.30;;;;;;5114602;28;20030;-75
2022/07/16 08:09:18;;;;;;;5.80;5.30;;;28.80;91.40;;;;;;5114676;28;20020;-76
2022/07/16 08:11:44;;;;;;;7.47;4.60;;;28.70;91.20;;;;;;5114694;28;20031;-75
2022/07/16 08:14:10;;;;;;;5.22;4.72;;;28.80;91.60;;;;;;5114748;28;20146;-75
2022/07/16 08:16:36;;;;;;;4.30;4.10;;;28.80;91.70;;;;;;5114537;28;20024;-75
2022/07/16 08:19:02;;;;;;;6.78;4.30;;;28.90;91.10;;;;;;5096223;28;20081;-75
2022/07/16 08:21:28;;;;;;;5.45;4.40;;;28.90;90.00;;;;;;5114325;28;20479;-75
2022/07/16 08:26:41;;;;;;;4.97;4.57;;;28.90;90.00;;;;;;5114182;28;20395;-75
2022/07/16 08:29:15;;;;;;;5.28;4.75;;;28.90;89.90;;;;;;5114169;28;20051;-75
2022/07/16 08:31:41;;;;;;;5.55;5.03;;;28.90;90.10;;;;;;5095820;28;20055;-75
2022/07/16 08:34:07;;;;;;;5.13;4.15;;;29.00;89.00;;;;;;5114339;28;20031;-75
2022/07/16 08:36:33;;;;;;;4.55;4.25;;;29.00;88.00;;;;;;5114126;28;20016;-75
2022/07/16 08:38:59;;;;;;;5.10;4.70;;;29.10;89.50;;;;;;5114100;28;20024;-75
2022/07/16 08:41:26;;;;;;;4.60;4.20;;;29.10;86.50;;;;;;5114150;28;20072;-75
2022/07/16 08:43:52;;;;;;;4.55;4.25;;;29.10;86.90;;;;;;5114073;28;20176;-75
2022/07/16 08:46:21;;;;;;;4.40;3.80;;;29.20;87.60;;;;;;5114093;28;20027;-75
2022/07/16 08:48:48;;;;;;;4.20;3.83;;;29.20;86.40;;;;;;5114068;28;20034;-75
2022/07/16 08:51:20;;;;;;;4.00;3.80;;;29.30;83.80;;;;;;5113479;28;20386;-75
2022/07/16 08:53:48;;;;;;;4.30;3.95;;;29.30;83.50;;;;;;5113295;28;20031;-75
2022/07/16 08:56:13;;;;;;;5.32;3.63;;;29.30;84.10;;;;;;5113805;28;20594;-75
2022/07/16 08:58:40;;;;;;;4.80;3.95;;;29.40;83.20;;;;;;5113873;28;20099;-75
2022/07/16 09:01:06;;;;;;;3.70;3.50;;;29.50;83.90;;;;;;5113984;28;20057;-75
2022/07/16 09:03:32;;;;;;;4.40;4.00;;;29.50;83.70;;;;;;5091924;28;20051;-75
2022/07/16 09:05:59;;;;;;;4.20;3.80;;;29.60;83.70;;;;;;5093348;28;20023;-75
2022/07/16 09:08:25;;;;;;;4.00;3.70;;;29.60;83.30;;;;;;5093469;28;20059;-75
2022/07/16 09:10:50;;;;;;;8.65;3.65;;;29.60;81.40;;;;;;5093248;28;20048;-75
2022/07/16 09:13:16;;;;;;;3.97;3.70;;;29.50;80.70;;;;;;5093453;28;20085;-75
2022/07/16 09:15:44;;;;;;;3.45;3.15;;;29.60;79.20;;;;;;5093304;28;20062;-73
2022/07/16 09:18:22;;;;;;;4.93;3.50;;;29.60;79.50;;;;;;5093233;28;20196;-73
2022/07/16 09:20:53;;;;;;;6.72;3.70;;;29.60;80.40;;;;;;5093369;28;20043;-73
2022/07/16 09:23:27;;;;;;;4.60;3.78;;;29.70;81.50;;;;;;5093219;28;20081;-73
2022/07/16 09:25:56;;;;;;;4.15;3.67;;;29.70;80.20;;;;;;5091733;28;20032;-73
2022/07/16 09:28:24;;;;;;;3.85;3.63;;;29.80;79.20;;;;;;5093074;28;20024;-73
2022/07/16 09:30:50;;;;;;;5.00;4.50;;;29.90;79.90;;;;;;5091676;28;20490;-72
2022/07/16 09:33:21;;;;;;;4.28;3.88;;;29.90;80.10;;;;;;5093056;28;20429;-73
2022/07/16 09:35:48;;;;;;;3.97;3.55;;;29.90;78.80;;;;;;5093187;28;20028;-73
2022/07/16 09:38:14;;;;;;;3.75;3.45;;;30.10;79.30;;;;;;5093156;28;20020;-73
2022/07/16 09:40:44;;;;;;;4.15;3.58;;;30.00;77.40;;;;;;5092982;28;20024;-73
2022/07/16 09:43:15;;;;;;;5.03;3.03;;;30.00;76.30;;;;;;5092839;28;20028;-73
2022/07/16 09:45:43;;;;;;;5.90;3.30;;;30.00;76.80;;;;;;5093023;28;20507;-73
2022/07/16 09:48:18;;;;;;;3.30;3.10;;;30.10;77.10;;;;;;5091602;28;20017;-73
2022/07/16 09:50:44;;;;;;;4.32;3.53;;;30.10;77.70;;;;;;5091554;28;20024;-73
2022/07/16 09:53:18;;;;;;;4.55;3.33;;;30.40;77.20;;;;;;5092724;28;20028;-73
2022/07/16 09:56:07;;;;;;;3.92;3.58;;;30.60;75.40;;;;;;5091579;28;20056;-73
2022/07/16 09:58:34;;;;;;;3.50;3.30;;;30.60;74.60;;;;;;5093062;28;20024;-73
2022/07/16 10:01:01;;;;;;;4.50;3.72;;;30.60;73.40;;;;;;5092999;28;20044;-73
2022/07/16 10:03:28;;;;;;;3.63;3.33;;;30.60;73.30;;;;;;5092289;28;20392;-73
2022/07/16 10:05:54;;;;;;;4.18;3.88;;;30.60;73.40;;;;;;5096790;28;20181;-73
2022/07/16 10:08:20;;;;;;;3.70;3.00;;;30.60;75.40;;;;;;5095385;28;20031;-73
2022/07/16 10:10:47;;;;;;;6.53;3.42;;;30.60;73.70;;;;;;5096611;28;20486;-73
2022/07/16 10:13:13;;;;;;;3.70;3.45;;;30.70;74.90;;;;;;5096494;28;20479;-73
2022/07/16 10:15:40;;;;;;;6.13;3.53;;;30.70;72.50;;;;;;5096765;28;20017;-73
2022/07/16 10:18:46;;;;;;;3.58;3.28;;;30.80;71.40;;;;;;5096356;28;20032;-73
2022/07/16 10:21:16;;;;;;;3.30;3.10;;;30.80;72.80;;;;;;5074154;28;20028;-73
2022/07/16 10:23:48;;;;;;;4.05;3.65;;;30.90;71.20;;;;;;5074291;28;20031;-73
2022/07/16 10:26:17;;;;;;;3.97;3.22;;;30.70;70.30;;;;;;5086082;28;20117;-73
2022/07/16 10:28:51;;;;;;;2.90;2.70;;;30.80;70.90;;;;;;5095035;28;20111;-73
2022/07/16 10:34:41;;;;;;;3.45;3.15;;;31.20;69.50;;;;;;5096578;28;20088;-73
2022/07/16 10:37:23;;;;;;;5.07;3.38;;;31.20;69.50;;;;;;5096315;28;20055;-73
2022/07/16 10:40:09;;;;;;;4.25;3.17;;;31.30;69.80;;;;;;5094785;28;20020;-73
2022/07/16 10:42:35;;;;;;;4.07;3.78;;;31.40;67.70;;;;;;5096069;28;20028;-73
2022/07/16 10:45:01;;;;;;;3.15;2.83;;;31.40;67.60;;;;;;5096263;28;20076;-73
2022/07/16 10:47:45;;;;;;;3.20;3.00;;;31.40;68.20;;;;;;5095945;28;20021;-74
2022/07/16 10:50:19;;;;;;;4.00;3.50;;;31.70;68.90;;;;;;5095931;28;20023;-73
2022/07/16 10:52:47;;;;;;;3.35;3.10;;;31.90;68.10;;;;;;5095885;28;20036;-74
2022/07/16 10:55:40;;;;;;;3.10;2.90;;;31.80;66.40;;;;;;5095952;28;20031;-73
2022/07/16 10:58:06;;;;;;;3.42;3.13;;;31.90;67.30;;;;;;5095931;28;20009;-73
2022/07/16 11:00:32;;;;;;;3.75;3.38;;;32.00;65.80;;;;;;5095764;28;20027;-73
2022/07/16 11:03:00;;;;;;;3.78;3.47;;;32.10;67.70;;;;;;5104254;28;20169;-73
2022/07/16 11:05:31;;;;;;;3.67;3.33;;;32.10;66.10;;;;;;5097621;28;20114;-73
2022/07/16 11:08:11;;;;;;;3.78;3.47;;;32.20;66.50;;;;;;5097752;28;20030;-73
2022/07/16 11:10:38;;;;;;;3.55;3.35;;;32.20;64.60;;;;;;5115880;28;20432;-73
2022/07/16 11:13:11;;;;;;;2.95;2.75;;;32.30;65.10;;;;;;5115759;28;20019;-74
2022/07/16 11:15:37;;;;;;;5.55;3.10;;;32.40;64.70;;;;;;5114731;28;20104;-74
2022/07/16 11:18:03;;;;;;;3.17;3.00;;;32.30;63.80;;;;;;5116093;28;20059;-73
2022/07/16 11:20:36;;;;;;;3.72;3.35;;;32.40;64.40;;;;;;5115598;28;20012;-73
2022/07/16 11:23:07;;;;;;;4.03;2.88;;;32.50;65.30;;;;;;5115669;28;20031;-74
2022/07/16 11:25:33;;;;;;;;;;;32.60;64.60;;;;;;5116204;28;20023;-73
2022/07/16 11:28:02;;;;;;;3.63;3.30;;;32.60;61.80;;;;;;5115522;28;20287;-73
2022/07/16 11:30:28;;;;;;;3.47;3.17;;;32.70;61.70;;;;;;5097100;28;20023;-74
2022/07/16 11:32:54;;;;;;;4.22;3.30;;;32.60;61.30;;;;;;5115496;28;20023;-73
2022/07/16 11:35:20;;;;;;;3.85;3.55;;;32.70;61.00;;;;;;5115454;28;20028;-73
2022/07/16 11:37:57;;;;;;;3.63;3.33;;;32.50;61.20;;;;;;5114884;28;20081;-73
2022/07/16 11:40:37;;;;;;;3.30;3.10;;;32.60;61.10;;;;;;5115290;28;20034;-73
2022/07/16 11:43:03;;;;;;;3.75;3.47;;;32.70;60.80;;;;;;5115177;28;20103;-73
2022/07/16 11:45:35;;;;;;;4.82;3.30;;;32.70;59.80;;;;;;5115198;28;20510;-73
2022/07/16 11:48:12;;;;;;;3.47;3.28;;;32.80;61.00;;;;;;5096847;28;20055;-73
2022/07/16 11:50:38;;;;;;;4.07;2.80;;;33.00;61.50;;;;;;5096912;28;20392;-73
2022/07/16 11:53:04;;;;;;;4.28;3.97;;;33.20;62.10;;;;;;5115232;28;20031;-73
2022/07/16 11:55:30;;;;;;;3.90;3.60;;;33.20;61.60;;;;;;5114967;28;20030;-75
2022/07/16 11:57:55;;;;;;;3.60;3.38;;;33.10;62.00;;;;;;5114902;28;20016;-72
2022/07/16 12:00:21;;;;;;;3.67;3.38;;;33.20;62.00;;;;;;5114773;28;20056;-73
2022/07/16 12:02:57;;;;;;;10.85;3.08;;;33.30;59.60;;;;;;5114415;28;20043;-73
2022/07/16 12:05:29;;;;;;;5.68;3.20;;;33.50;60.20;;;;;;5114925;28;20032;-73
2022/07/16 12:07:56;;;;;;;3.50;3.17;;;33.60;59.10;;;;;;5115077;28;20110;-73
2022/07/16 12:10:27;;;;;;;3.92;3.20;;;33.60;58.80;;;;;;5096496;28;20035;-73
2022/07/16 12:13:09;;;;;;;3.10;2.90;;;33.80;59.00;;;;;;5114943;28;20383;-73
2022/07/16 12:15:55;;;;;;;3.25;2.92;;;33.90;59.80;;;;;;5114609;28;20084;-73
2022/07/16 12:18:23;;;;;;;3.10;2.95;;;34.00;58.10;;;;;;5114578;28;20558;-72
2022/07/16 12:20:50;;;;;;;4.20;3.17;;;34.10;57.90;;;;;;5114172;28;20016;-73
2022/07/16 12:23:34;;;;;;;3.35;3.08;;;34.30;58.30;;;;;;5114721;28;20022;-73
2022/07/16 12:26:05;;;;;;;3.55;3.25;;;34.30;56.40;;;;;;5114186;28;20032;-73
2022/07/16 12:28:34;;;;;;;3.53;3.33;;;34.50;55.50;;;;;;5114546;28;20073;-73
2022/07/16 12:31:05;;;;;;;3.67;3.33;;;34.50;55.50;;;;;;5114423;28;20050;-73
2022/07/16 12:33:32;;;;;;;4.22;3.70;;;34.20;55.20;;;;;;5114779;28;20047;-72
2022/07/16 12:36:07;;;;;;;3.63;3.25;;;34.30;55.90;;;;;;5114162;28;20019;-73
2022/07/16 12:38:55;;;;;;;3.03;2.83;;;34.30;55.80;;;;;;5114335;28;20015;-73
2022/07/16 12:41:21;;;;;;;3.30;3.15;;;34.50;56.90;;;;;;5114389;28;20524;-73
2022/07/16 12:43:55;;;;;;;4.03;2.92;;;34.60;56.60;;;;;;5114054;28;20020;-73
2022/07/16 12:46:23;;;;;;;3.88;3.55;;;34.50;55.40;;;;;;5114276;28;20031;-73
2022/07/16 12:48:58;;;;;;;3.15;2.85;;;34.60;55.80;;;;;;5114069;28;20063;-73
2022/07/16 12:51:27;;;;;;;2.70;2.60;;;34.70;55.80;;;;;;5113957;28;20015;-73
2022/07/16 12:53:54;;;;;;;4.25;3.28;;;34.80;54.50;;;;;;5113846;28;20471;-72
2022/07/16 12:59:05;;;;;;;3.72;3.42;;;34.70;54.40;;;;;;5113881;28;20111;-73
2022/07/16 13:01:31;;;;;;;3.17;2.97;;;34.70;55.00;;;;;;5113988;28;20030;-73
2022/07/16 13:03:57;;;;;;;3.80;3.60;;;34.80;54.60;;;;;;5113710;28;20051;-73
2022/07/16 13:06:24;;;;;;;3.42;3.22;;;34.80;53.60;;;;;;5113843;28;20506;-73